createdAt,value
2018-11-23T00:01:32.717Z,47.13
2018-11-23T00:04:13.805Z,23.37
2018-11-23T00:06:55.508Z,19.23
2018-11-23T00:09:24.767Z,11.13
2018-11-23T00:12:13.336Z,11.97
2018-11-23T00:14:55.006Z,16.43
2018-11-23T00:17:36.774Z,12.27
2018-11-23T00:20:25.794Z,17.80
2018-11-23T00:22:55.006Z,16.50
2018-11-23T00:25:43.604Z,9.87
2018-11-23T00:28:25.117Z,31.97
2018-11-23T00:31:07.161Z,8.60
2018-11-23T00:33:48.663Z,10.50
2018-11-23T00:36:30.670Z,20.03
2018-11-23T00:39:12.258Z,13.80
2018-11-23T00:41:53.434Z,12.07
2018-11-23T00:44:34.753Z,16.53
2018-11-23T00:47:15.818Z,6.40
2018-11-23T00:49:57.517Z,5.43
2018-11-23T00:52:40.911Z,8.13
2018-11-23T00:56:48.125Z,7.47
2018-11-23T00:59:17.564Z,8.20
2018-11-23T01:01:52.341Z,4.57
2018-11-23T01:04:22.013Z,5.40
2018-11-23T01:06:51.573Z,4.63
2018-11-23T01:09:20.892Z,6.60
2018-11-23T01:11:50.349Z,3.87
2018-11-23T01:14:19.799Z,4.77
2018-11-23T01:16:49.593Z,4.20
2018-11-23T01:19:18.888Z,3.90
2018-11-23T01:21:48.341Z,3.83
2018-11-23T01:24:18.249Z,5.13
2018-11-23T01:26:47.635Z,3.00
2018-11-23T01:29:17.096Z,4.70
2018-11-23T01:31:46.537Z,6.53
2018-11-23T01:34:15.934Z,3.93
2018-11-23T01:36:45.408Z,3.85
2018-11-23T01:39:15.116Z,4.67
2018-11-23T01:41:44.722Z,3.22
2018-11-23T01:44:14.172Z,4.97
2018-11-23T01:46:43.565Z,3.30
2018-11-23T01:49:13.198Z,3.20
2018-11-23T01:51:42.609Z,3.47
2018-11-23T01:54:12.129Z,3.90
2018-11-23T01:56:41.490Z,3.27
2018-11-23T01:59:11.261Z,3.93
2018-11-23T02:01:40.568Z,2.90
2018-11-23T02:04:10.406Z,3.03
2018-11-23T02:06:39.703Z,4.30
2018-11-23T02:09:09.180Z,3.13
2018-11-23T02:11:38.697Z,5.20
2018-11-23T02:14:07.980Z,3.37
2018-11-23T02:16:37.365Z,3.52
2018-11-23T02:19:06.691Z,3.72
2018-11-23T02:21:36.027Z,3.12
2018-11-23T02:24:05.538Z,3.70
2018-11-23T02:26:35.055Z,3.00
2018-11-23T02:29:04.766Z,4.27
2018-11-23T02:31:34.281Z,3.47
2018-11-23T02:34:03.557Z,3.83
2018-11-23T02:36:33.023Z,3.45
2018-11-23T02:39:02.382Z,2.97
2018-11-23T02:41:31.629Z,3.20
2018-11-23T02:44:01.445Z,2.63
2018-11-23T02:46:30.996Z,2.63
2018-11-23T02:49:00.275Z,3.13
2018-11-23T02:51:29.711Z,3.10
2018-11-23T02:53:59.164Z,2.00
2018-11-23T02:56:37.972Z,2.03
2018-11-23T02:59:08.837Z,2.40
2018-11-23T03:01:38.353Z,2.53
2018-11-23T03:04:08.621Z,2.75
2018-11-23T03:06:37.891Z,2.57
2018-11-23T03:09:08.761Z,3.13
2018-11-23T03:11:40.159Z,2.70
2018-11-23T03:14:10.236Z,4.93
2018-11-23T03:16:39.745Z,3.25
2018-11-23T03:19:09.092Z,2.80
2018-11-23T03:21:38.568Z,3.50
2018-11-23T03:24:07.871Z,3.30
2018-11-23T03:26:37.805Z,3.00
2018-11-23T03:29:07.187Z,3.40
2018-11-23T03:31:36.645Z,2.87
2018-11-23T03:34:06.166Z,2.87
2018-11-23T03:36:35.470Z,2.65
2018-11-23T03:39:07.693Z,3.30
2018-11-23T03:41:37.297Z,3.45
2018-11-23T03:44:06.677Z,3.43
2018-11-23T03:46:36.072Z,3.05
2018-11-23T03:49:05.669Z,4.00
2018-11-23T03:51:35.625Z,2.60
2018-11-23T03:54:04.988Z,3.13
2018-11-23T03:56:34.336Z,4.73
2018-11-23T03:59:03.813Z,3.10
2018-11-23T04:01:33.142Z,3.67
2018-11-23T04:04:02.606Z,4.13
2018-11-23T04:06:32.065Z,3.33
2018-11-23T04:09:01.392Z,3.60
2018-11-23T04:11:30.797Z,3.07
2018-11-23T04:14:00.257Z,3.80
2018-11-23T04:16:29.537Z,2.93
2018-11-23T04:18:58.901Z,3.00
2018-11-23T04:21:28.353Z,3.40
2018-11-23T04:23:57.693Z,3.67
2018-11-23T04:26:27.899Z,4.35
2018-11-23T04:28:57.561Z,3.57
2018-11-23T04:31:27.877Z,4.70
2018-11-23T04:33:57.353Z,4.33
2018-11-23T04:36:26.659Z,3.17
2018-11-23T04:38:56.421Z,4.53
2018-11-23T04:41:25.701Z,3.13
2018-11-23T04:43:54.987Z,4.85
2018-11-23T04:46:24.395Z,5.07
2018-11-23T04:48:53.973Z,4.40
2018-11-23T04:51:23.316Z,6.40
2018-11-23T04:53:52.613Z,6.57
2018-11-23T04:56:21.879Z,4.73
2018-11-23T04:58:51.733Z,4.10
2018-11-23T05:01:21.119Z,5.23
2018-11-23T05:03:50.369Z,7.87
2018-11-23T05:06:19.869Z,6.50
2018-11-23T05:08:49.413Z,5.57
2018-11-23T05:11:19.241Z,5.17
2018-11-23T05:13:49.109Z,6.07
2018-11-23T05:16:18.466Z,6.13
2018-11-23T05:18:47.954Z,5.80
2018-11-23T05:21:17.296Z,6.43
2018-11-23T05:23:46.579Z,6.40
2018-11-23T05:26:15.980Z,8.20
2018-11-23T05:28:45.467Z,8.03
2018-11-23T05:31:14.961Z,11.43
2018-11-23T05:33:44.377Z,8.90
2018-11-23T05:36:13.869Z,10.63
2018-11-23T05:38:43.235Z,11.80
2018-11-23T05:41:12.747Z,9.40
2018-11-23T05:43:42.160Z,11.70
2018-11-23T05:46:11.751Z,8.90
2018-11-23T05:48:41.096Z,11.37
2018-11-23T05:51:10.814Z,10.93
2018-11-23T05:53:40.277Z,12.37
2018-11-23T05:56:09.744Z,12.17
2018-11-23T05:58:39.306Z,14.47
2018-11-23T06:01:08.628Z,9.53
2018-11-23T06:03:37.934Z,6.67
2018-11-23T06:06:07.377Z,14.47
2018-11-23T06:08:36.712Z,12.10
2018-11-23T06:11:06.689Z,10.43
2018-11-23T06:13:36.120Z,11.40
2018-11-23T06:16:05.773Z,13.27
2018-11-23T06:18:35.099Z,9.75
2018-11-23T06:21:04.573Z,12.13
2018-11-23T06:23:33.970Z,10.17
2018-11-23T06:26:12.994Z,12.10
2018-11-23T06:28:42.473Z,12.33
2018-11-23T06:31:12.228Z,16.63
2018-11-23T06:33:44.837Z,10.23
2018-11-23T06:36:14.197Z,12.43
2018-11-23T06:38:43.662Z,11.00
2018-11-23T06:41:13.252Z,10.87
2018-11-23T06:43:42.637Z,13.60
2018-11-23T06:46:12.671Z,11.57
2018-11-23T06:48:42.214Z,10.70
2018-11-23T06:51:11.509Z,10.57
2018-11-23T06:53:40.784Z,11.53
2018-11-23T06:56:10.163Z,10.90
2018-11-23T06:58:39.423Z,9.70
2018-11-23T07:01:08.704Z,11.37
2018-11-23T07:03:38.157Z,15.30
2018-11-23T07:06:07.473Z,10.23
2018-11-23T07:08:36.738Z,10.38
2018-11-23T07:11:06.613Z,11.40
2018-11-23T07:13:36.088Z,13.40
2018-11-23T07:16:05.582Z,12.27
2018-11-23T07:18:34.950Z,13.90
2018-11-23T07:21:04.756Z,14.60
2018-11-23T07:23:34.257Z,12.53
2018-11-23T07:26:03.717Z,14.70
2018-11-23T07:28:33.392Z,15.08
2018-11-23T07:31:02.689Z,13.63
2018-11-23T07:33:32.163Z,13.53
2018-11-23T07:36:01.511Z,13.93
2018-11-23T07:38:31.034Z,14.17
2018-11-23T07:41:11.618Z,14.07
2018-11-23T07:43:41.001Z,13.07
2018-11-23T07:46:10.286Z,13.87
2018-11-23T07:48:39.558Z,14.45
2018-11-23T07:51:08.884Z,13.73
2018-11-23T07:53:38.170Z,10.33
2018-11-23T07:56:07.476Z,14.83
2018-11-23T07:58:37.011Z,15.10
2018-11-23T08:01:06.405Z,10.90
2018-11-23T08:03:35.864Z,9.40
2018-11-23T08:06:05.330Z,9.23
2018-11-23T08:08:34.625Z,9.48
2018-11-23T08:11:07.206Z,8.83
2018-11-23T08:13:37.770Z,9.15
2018-11-23T08:16:07.376Z,8.97
2018-11-23T08:18:36.885Z,9.73
2018-11-23T08:21:06.328Z,9.17
2018-11-23T08:23:35.568Z,10.45
2018-11-23T08:26:04.915Z,10.07
2018-11-23T08:28:34.197Z,9.40
2018-11-23T08:31:03.502Z,7.90
2018-11-23T08:33:32.886Z,10.27
2018-11-23T08:36:02.421Z,8.90
2018-11-23T08:38:31.941Z,8.57
2018-11-23T08:41:01.320Z,7.53
2018-11-23T08:43:30.905Z,7.70
2018-11-23T08:46:00.782Z,9.67
2018-11-23T08:48:30.102Z,8.07
2018-11-23T08:50:59.974Z,8.43
2018-11-23T08:53:33.636Z,8.63
2018-11-23T08:56:03.616Z,7.40
2018-11-23T08:58:33.079Z,8.73
2018-11-23T09:01:02.383Z,6.57
2018-11-23T09:03:31.715Z,8.80
2018-11-23T09:06:01.061Z,9.20
2018-11-23T09:08:30.336Z,8.27
2018-11-23T09:10:59.745Z,7.33
2018-11-23T09:13:29.044Z,8.63
2018-11-23T09:15:58.499Z,7.73
2018-11-23T09:18:28.845Z,8.08
2018-11-23T09:20:58.272Z,7.27
2018-11-23T09:23:28.573Z,9.80
2018-11-23T09:25:57.876Z,8.33
2018-11-23T09:28:27.168Z,7.97
2018-11-23T09:30:56.629Z,10.13
2018-11-23T09:33:26.008Z,9.03
2018-11-23T09:35:55.326Z,6.93
2018-11-23T09:38:24.801Z,8.05
2018-11-23T09:40:54.071Z,8.03
2018-11-23T09:43:23.367Z,7.30
2018-11-23T09:45:52.663Z,7.23
2018-11-23T09:48:21.985Z,10.07
2018-11-23T09:50:51.296Z,8.00
2018-11-23T09:53:20.574Z,7.57
2018-11-23T09:55:50.292Z,9.03
2018-11-23T09:58:19.669Z,8.40
2018-11-23T10:00:49.268Z,6.73
2018-11-23T10:03:19.045Z,7.47
2018-11-23T10:05:48.558Z,8.40
2018-11-23T10:08:18.044Z,8.38
2018-11-23T10:10:47.378Z,9.70
2018-11-23T10:13:16.752Z,7.80
2018-11-23T10:15:46.142Z,7.45
2018-11-23T10:18:15.778Z,8.47
2018-11-23T10:20:45.248Z,8.48
2018-11-23T10:23:14.829Z,6.90
2018-11-23T10:25:44.116Z,8.48
2018-11-23T10:28:13.530Z,9.20
2018-11-23T10:30:42.808Z,7.80
2018-11-23T10:33:12.294Z,8.23
2018-11-23T10:35:41.620Z,10.30
2018-11-23T10:38:11.093Z,7.65
2018-11-23T10:40:41.137Z,8.17
2018-11-23T10:43:10.595Z,10.50
2018-11-23T10:45:40.077Z,7.87
2018-11-23T10:48:09.914Z,8.00
2018-11-23T10:50:40.873Z,7.90
2018-11-23T10:53:10.201Z,9.33
2018-11-23T10:55:39.742Z,9.25
2018-11-23T10:58:09.167Z,7.50
2018-11-23T11:00:43.821Z,7.30
2018-11-23T11:03:33.543Z,7.83
2018-11-23T11:06:10.568Z,7.77
2018-11-23T11:08:40.178Z,7.90
2018-11-23T11:11:09.876Z,7.80
2018-11-23T11:13:39.184Z,7.67
2018-11-23T11:16:08.546Z,9.13
2018-11-23T11:18:37.910Z,9.23
2018-11-23T11:21:07.281Z,9.53
2018-11-23T11:23:36.573Z,8.25
2018-11-23T11:26:06.255Z,8.98
2018-11-23T11:28:35.540Z,9.70
2018-11-23T11:31:05.383Z,11.13
2018-11-23T11:33:34.893Z,12.70
2018-11-23T11:36:04.355Z,10.50
2018-11-23T11:38:33.603Z,10.68
2018-11-23T11:41:02.931Z,13.07
2018-11-23T11:43:32.310Z,15.25
2018-11-23T11:46:01.595Z,15.00
2018-11-23T11:48:30.933Z,15.77
2018-11-23T11:51:00.533Z,16.73
2018-11-23T11:53:29.965Z,15.80
2018-11-23T11:55:59.301Z,16.05
2018-11-23T11:58:29.196Z,16.60
2018-11-23T12:00:58.546Z,15.97
2018-11-23T12:03:28.006Z,18.17
2018-11-23T12:05:57.401Z,20.10
2018-11-23T12:08:26.685Z,15.90
2018-11-23T12:10:56.775Z,16.23
2018-11-23T12:13:25.325Z,16.00
2018-11-23T12:15:55.201Z,21.80
2018-11-23T12:18:24.748Z,17.20
2018-11-23T12:20:54.077Z,20.27
2018-11-23T12:23:23.713Z,17.60
2018-11-23T12:25:52.987Z,20.07
2018-11-23T12:28:22.296Z,18.37
2018-11-23T12:30:52.026Z,18.27
2018-11-23T12:33:21.532Z,19.10
2018-11-23T12:35:51.005Z,18.67
2018-11-23T12:38:20.357Z,17.52
2018-11-23T12:40:49.704Z,19.17
2018-11-23T12:43:19.199Z,16.03
2018-11-23T12:45:49.049Z,17.73
2018-11-23T12:48:18.392Z,18.43
2018-11-23T12:50:47.780Z,19.07
2018-11-23T12:53:17.225Z,19.33
2018-11-23T12:55:46.633Z,15.73
2018-11-23T12:58:15.929Z,17.27
2018-11-23T13:00:45.294Z,18.50
2018-11-23T13:03:14.858Z,17.77
2018-11-23T13:05:44.716Z,17.10
2018-11-23T13:08:14.025Z,17.13
2018-11-23T13:10:43.316Z,19.70
2018-11-23T13:13:12.797Z,18.40
2018-11-23T13:15:42.403Z,19.07
2018-11-23T13:18:12.050Z,23.37
2018-11-23T13:20:41.389Z,21.60
2018-11-23T13:23:10.854Z,20.63
2018-11-23T13:25:40.173Z,21.37
2018-11-23T13:28:09.664Z,20.10
2018-11-23T13:30:39.149Z,20.73
2018-11-23T13:33:08.520Z,20.53
2018-11-23T13:35:37.880Z,18.73
2018-11-23T13:38:07.356Z,20.20
2018-11-23T13:40:37.193Z,18.93
2018-11-23T13:43:06.613Z,19.12
2018-11-23T13:45:35.944Z,21.35
2018-11-23T13:48:05.697Z,23.18
2018-11-23T13:50:35.104Z,21.17
2018-11-23T13:53:04.482Z,21.43
2018-11-23T13:55:33.807Z,21.97
2018-11-23T13:58:03.163Z,24.33
2018-11-23T14:00:32.501Z,21.93
2018-11-23T14:03:01.983Z,21.67
2018-11-23T14:05:32.312Z,21.13
2018-11-23T14:08:02.833Z,21.30
2018-11-23T14:10:32.402Z,19.87
2018-11-23T14:13:02.194Z,20.57
2018-11-23T14:15:31.912Z,23.53
2018-11-23T14:18:01.802Z,21.33
2018-11-23T14:20:31.565Z,22.63
2018-11-23T14:23:00.877Z,33.10
2018-11-23T14:25:31.481Z,22.13
2018-11-23T14:28:01.246Z,24.20
2018-11-23T14:30:32.913Z,24.77
2018-11-23T14:33:03.282Z,26.97
2018-11-23T14:35:33.865Z,25.83
2018-11-23T14:38:04.018Z,25.70
2018-11-23T14:40:33.368Z,26.27
2018-11-23T14:43:02.669Z,26.67
2018-11-23T14:45:34.429Z,25.53
2018-11-23T14:48:06.116Z,27.53
2018-11-23T14:50:39.645Z,29.23
2018-11-23T14:53:09.018Z,27.93
2018-11-23T14:55:38.355Z,28.25
2018-11-23T14:58:07.749Z,27.97
2018-11-23T15:00:38.250Z,29.50
2018-11-23T15:03:08.272Z,32.20
2018-11-23T15:05:38.017Z,30.40
2018-11-23T15:08:09.327Z,33.50
2018-11-23T15:10:40.353Z,34.65
2018-11-23T15:13:09.829Z,33.93
2018-11-23T15:15:40.272Z,32.60
2018-11-23T15:18:10.145Z,31.77
2018-11-23T15:20:44.126Z,30.90
2018-11-23T15:23:17.078Z,29.53
2018-11-23T15:25:46.656Z,34.83
2018-11-23T15:28:16.513Z,31.10
2018-11-23T15:30:46.575Z,34.48
2018-11-23T15:33:17.248Z,34.10
2018-11-23T15:35:46.765Z,34.77
2018-11-23T15:38:17.868Z,35.53
2018-11-23T15:40:47.441Z,33.00
2018-11-23T15:43:17.793Z,32.83
2018-11-23T15:45:47.479Z,35.13
2018-11-23T15:48:16.781Z,32.53
2018-11-23T15:50:46.599Z,33.33
2018-11-23T15:53:16.617Z,34.37
2018-11-23T15:55:46.546Z,32.90
2018-11-23T15:58:16.968Z,33.23
2018-11-23T16:00:47.480Z,33.98
2018-11-23T16:03:17.505Z,37.73
2018-11-23T16:05:46.920Z,34.37
2018-11-23T16:08:18.760Z,33.57
2018-11-23T16:10:48.384Z,33.97
2018-11-23T16:13:17.869Z,35.37
2018-11-23T16:15:47.367Z,34.55
2018-11-23T16:18:16.765Z,32.87
2018-11-23T16:20:46.794Z,33.40
2018-11-23T16:23:18.629Z,32.03
2018-11-23T16:25:48.538Z,30.00
2018-11-23T16:28:17.900Z,32.83
2018-11-23T16:30:48.561Z,30.00
2018-11-23T16:33:20.366Z,31.47
2018-11-23T16:35:49.732Z,27.20
2018-11-23T16:38:20.543Z,30.53
2018-11-23T16:40:53.500Z,29.70
2018-11-23T16:43:22.801Z,27.73
2018-11-23T16:45:52.413Z,28.53
2018-11-23T16:48:22.304Z,31.37
2018-11-23T16:50:51.866Z,31.90
2018-11-23T16:53:21.313Z,32.57
2018-11-23T16:55:50.816Z,34.40
2018-11-23T16:58:20.516Z,40.50
2018-11-23T17:00:50.044Z,46.57
2018-11-23T17:03:20.933Z,42.87
2018-11-23T17:05:51.744Z,37.00
2018-11-23T17:08:21.045Z,39.17
2018-11-23T17:10:50.625Z,27.83
2018-11-23T17:13:20.057Z,27.40
2018-11-23T17:15:50.086Z,26.57
2018-11-23T17:18:19.611Z,25.77
2018-11-23T17:20:49.134Z,27.10
2018-11-23T17:23:18.444Z,25.43
2018-11-23T17:25:48.075Z,27.10
2018-11-23T17:28:17.409Z,23.93
2018-11-23T17:30:47.045Z,27.00
2018-11-23T17:33:16.528Z,25.33
2018-11-23T17:35:45.929Z,27.03
2018-11-23T17:38:15.425Z,23.67
2018-11-23T17:40:44.993Z,24.73
2018-11-23T17:43:14.375Z,25.17
2018-11-23T17:45:43.741Z,25.30
2018-11-23T17:48:13.317Z,27.82
2018-11-23T17:50:42.883Z,23.33
2018-11-23T17:53:12.369Z,23.67
2018-11-23T17:55:41.660Z,24.80
2018-11-23T17:58:11.468Z,27.87
2018-11-23T18:00:40.794Z,25.80
2018-11-23T18:03:10.142Z,24.77
2018-11-23T18:05:39.657Z,25.13
2018-11-23T18:08:09.188Z,24.10
2018-11-23T18:10:38.536Z,27.75
2018-11-23T18:13:08.186Z,27.80
2018-11-23T18:15:37.800Z,24.70
2018-11-23T18:18:07.644Z,24.83
2018-11-23T18:20:37.110Z,26.93
2018-11-23T18:23:06.866Z,24.27
2018-11-23T18:25:38.902Z,26.10
2018-11-23T18:28:08.402Z,28.47
2018-11-23T18:30:37.738Z,29.45
2018-11-23T18:33:08.081Z,26.83
2018-11-23T18:35:37.567Z,28.10
2018-11-23T18:38:07.338Z,26.17
2018-11-23T18:40:37.689Z,28.50
2018-11-23T18:43:06.344Z,30.83
2018-11-23T18:45:35.834Z,27.17
2018-11-23T18:48:05.294Z,28.87
2018-11-23T18:50:34.615Z,24.97
2018-11-23T18:53:04.065Z,26.63
2018-11-23T18:55:33.448Z,28.23
2018-11-23T18:58:02.867Z,25.73
2018-11-23T19:00:33.020Z,26.03
2018-11-23T19:03:02.619Z,27.17
2018-11-23T19:05:32.063Z,23.67
2018-11-23T19:08:01.373Z,26.40
2018-11-23T19:10:30.781Z,26.37
2018-11-23T19:13:00.241Z,25.53
2018-11-23T19:15:30.557Z,23.90
2018-11-23T19:17:59.996Z,27.27
2018-11-23T19:25:23.882Z,24.70
2018-11-23T19:27:53.410Z,24.00
2018-11-23T19:30:28.771Z,25.40
2018-11-23T19:32:53.336Z,24.30
2018-11-23T19:35:22.793Z,26.77
2018-11-23T19:37:52.197Z,25.77
2018-11-23T19:40:21.704Z,25.40
2018-11-23T19:42:51.091Z,24.80
2018-11-23T19:45:20.365Z,26.17
2018-11-23T19:47:50.101Z,27.10
2018-11-23T19:50:19.643Z,27.43
2018-11-23T19:52:49.178Z,24.83
2018-11-23T19:55:18.595Z,27.90
2018-11-23T19:57:47.977Z,27.77
2018-11-23T20:00:22.713Z,27.17
2018-11-23T20:02:52.319Z,31.30
2018-11-23T20:05:22.036Z,27.40
2018-11-23T20:07:56.473Z,28.33
2018-11-23T20:10:26.475Z,28.07
2018-11-23T20:12:57.622Z,29.43
2018-11-23T20:15:26.997Z,31.47
2018-11-23T20:17:56.383Z,28.67
2018-11-23T20:20:25.754Z,29.42
2018-11-23T20:22:55.096Z,30.23
2018-11-23T20:25:24.592Z,28.63
2018-11-23T20:27:54.113Z,28.70
2018-11-23T20:30:23.664Z,30.67
2018-11-23T20:32:53.074Z,28.67
2018-11-23T20:35:23.209Z,31.33
2018-11-23T20:37:52.613Z,30.80
2018-11-23T20:40:23.069Z,33.10
2018-11-23T20:42:52.532Z,33.43
2018-11-23T20:45:21.958Z,33.00
2018-11-23T20:47:51.493Z,30.80
2018-11-23T20:50:20.830Z,32.73
2018-11-23T20:52:50.321Z,37.10
2018-11-23T20:55:21.671Z,31.63
2018-11-23T20:57:51.697Z,32.97
2018-11-23T21:00:22.277Z,33.40
2018-11-23T21:02:52.821Z,30.43
2018-11-23T21:05:22.572Z,29.43
2018-11-23T21:07:52.223Z,36.70
2018-11-23T21:10:25.430Z,32.60
2018-11-23T21:12:55.353Z,33.13
2018-11-23T21:15:26.196Z,37.08
2018-11-23T21:17:56.237Z,36.50
2018-11-23T21:20:25.764Z,35.53
2018-11-23T21:22:55.664Z,34.27
2018-11-23T21:25:25.574Z,33.73
2018-11-23T21:27:56.128Z,33.27
2018-11-23T21:30:25.461Z,34.73
2018-11-23T21:32:55.946Z,34.23
2018-11-23T21:35:25.763Z,36.63
2018-11-23T21:37:55.195Z,35.33
2018-11-23T21:40:24.568Z,33.63
2018-11-23T21:42:54.087Z,39.53
2018-11-23T21:45:23.597Z,38.00
2018-11-23T21:47:52.946Z,35.43
2018-11-23T21:50:25.650Z,38.30
2018-11-23T21:52:51.978Z,35.33
2018-11-23T21:55:22.569Z,36.73
2018-11-23T21:57:53.424Z,36.87
2018-11-23T22:00:24.250Z,38.40
2018-11-23T22:02:53.679Z,37.50
2018-11-23T22:05:23.520Z,37.20
2018-11-23T22:07:52.900Z,37.17
2018-11-23T22:10:22.384Z,38.63
2018-11-23T22:12:51.789Z,37.80
2018-11-23T22:15:22.600Z,41.77
2018-11-23T22:17:53.038Z,38.47
2018-11-23T22:20:22.977Z,36.50
2018-11-23T22:22:52.379Z,41.00
2018-11-23T22:25:22.993Z,37.47
2018-11-23T22:27:52.597Z,41.27
2018-11-23T22:30:24.605Z,39.90
2018-11-23T22:32:54.119Z,37.17
2018-11-23T22:35:23.446Z,41.73
2018-11-23T22:37:53.112Z,40.20
2018-11-23T22:40:22.616Z,38.20
2018-11-23T22:42:55.600Z,35.77
2018-11-23T22:45:24.952Z,38.57
2018-11-23T22:47:54.536Z,34.97
2018-11-23T22:50:24.381Z,41.17
2018-11-23T22:52:53.800Z,39.13
2018-11-23T22:55:23.389Z,41.10
2018-11-23T22:57:52.779Z,36.87
2018-11-23T23:01:28.463Z,39.93
2018-11-23T23:03:58.077Z,41.27
2018-11-23T23:06:27.605Z,40.17
2018-11-23T23:08:56.927Z,41.77
2018-11-23T23:11:26.252Z,39.67
2018-11-23T23:13:55.894Z,40.97
2018-11-23T23:16:25.359Z,39.90
2018-11-23T23:18:54.822Z,40.87
2018-11-23T23:21:24.532Z,38.33
2018-11-23T23:23:54.188Z,40.70
2018-11-23T23:26:23.984Z,39.07
2018-11-23T23:28:53.316Z,40.87
2018-11-23T23:31:23.009Z,40.83
2018-11-23T23:33:52.325Z,40.03
2018-11-23T23:36:21.908Z,40.07
2018-11-23T23:38:51.361Z,35.87
2018-11-23T23:41:20.837Z,41.03
2018-11-23T23:43:50.352Z,40.83
2018-11-23T23:46:19.702Z,38.23
2018-11-23T23:48:49.497Z,36.77
2018-11-23T23:51:18.776Z,37.17
2018-11-23T23:53:48.306Z,36.70
2018-11-23T23:56:17.727Z,39.30
2018-11-23T23:58:47.336Z,36.88
